sensor_id;sensor_type;location;lat;lon;timestamp;P1;durP1;ratioP1;P2;durP2;ratioP2
34876;SDS011;21086;44.780;17.194;2023-04-25T00:00:19;0.20;;;0.20;;
34876;SDS011;21086;44.780;17.194;2023-04-25T00:02:47;0.08;;;0.08;;
34876;SDS011;21086;44.780;17.194;2023-04-25T00:05:14;0.85;;;0.22;;
34876;SDS011;21086;44.780;17.194;2023-04-25T00:07:43;0.40;;;0.30;;
34876;SDS011;21086;44.780;17.194;2023-04-25T00:10:09;0.32;;;0.15;;
34876;SDS011;21086;44.780;17.194;2023-04-25T00:12:40;0.52;;;0.13;;
34876;SDS011;21086;44.780;17.194;2023-04-25T00:15:08;1.27;;;0.30;;
34876;SDS011;21086;44.780;17.194;2023-04-25T00:17:37;6.75;;;0.30;;
34876;SDS011;21086;44.780;17.194;2023-04-25T00:20:05;0.98;;;0.43;;
34876;SDS011;21086;44.780;17.194;2023-04-25T00:22:35;0.40;;;0.35;;
34876;SDS011;21086;44.780;17.194;2023-04-25T00:25:04;1.27;;;0.43;;
34876;SDS011;21086;44.780;17.194;2023-04-25T00:27:32;1.30;;;0.57;;
34876;SDS011;21086;44.780;17.194;2023-04-25T00:29:59;4.20;;;0.47;;
34876;SDS011;21086;44.780;17.194;2023-04-25T00:32:27;0.20;;;0.20;;
34876;SDS011;21086;44.780;17.194;2023-04-25T00:34:54;0.47;;;0.28;;
34876;SDS011;21086;44.780;17.194;2023-04-25T00:37:24;0.73;;;0.45;;
34876;SDS011;21086;44.780;17.194;2023-04-25T00:39:51;0.38;;;0.30;;
34876;SDS011;21086;44.780;17.194;2023-04-25T00:42:19;0.52;;;0.30;;
34876;SDS011;21086;44.780;17.194;2023-04-25T00:44:47;0.77;;;0.50;;
34876;SDS011;21086;44.780;17.194;2023-04-25T00:47:14;2.67;;;0.38;;
34876;SDS011;21086;44.780;17.194;2023-04-25T00:49:42;0.93;;;0.40;;
34876;SDS011;21086;44.780;17.194;2023-04-25T00:52:09;2.28;;;0.45;;
34876;SDS011;21086;44.780;17.194;2023-04-25T00:54:37;0.95;;;0.30;;
34876;SDS011;21086;44.780;17.194;2023-04-25T00:57:04;0.35;;;0.30;;
34876;SDS011;21086;44.780;17.194;2023-04-25T00:59:32;0.55;;;0.38;;
34876;SDS011;21086;44.780;17.194;2023-04-25T01:02:00;0.28;;;0.28;;
34876;SDS011;21086;44.780;17.194;2023-04-25T01:04:27;0.32;;;0.30;;
34876;SDS011;21086;44.780;17.194;2023-04-25T01:06:55;1.73;;;0.45;;
34876;SDS011;21086;44.780;17.194;2023-04-25T01:09:23;3.75;;;0.52;;
34876;SDS011;21086;44.780;17.194;2023-04-25T01:11:50;0.47;;;0.38;;
34876;SDS011;21086;44.780;17.194;2023-04-25T01:14:18;0.40;;;0.30;;
34876;SDS011;21086;44.780;17.194;2023-04-25T01:16:45;0.75;;;0.38;;
34876;SDS011;21086;44.780;17.194;2023-04-25T01:19:13;1.00;;;0.30;;
34876;SDS011;21086;44.780;17.194;2023-04-25T01:21:44;0.40;;;0.30;;
34876;SDS011;21086;44.780;17.194;2023-04-25T01:24:12;0.25;;;0.20;;
34876;SDS011;21086;44.780;17.194;2023-04-25T01:26:40;0.40;;;0.30;;
34876;SDS011;21086;44.780;17.194;2023-04-25T01:29:11;0.63;;;0.40;;
34876;SDS011;21086;44.780;17.194;2023-04-25T01:31:38;1.45;;;0.50;;
34876;SDS011;21086;44.780;17.194;2023-04-25T01:34:05;0.68;;;0.40;;
34876;SDS011;21086;44.780;17.194;2023-04-25T01:36:33;1.20;;;0.40;;
34876;SDS011;21086;44.780;17.194;2023-04-25T01:39:01;0.38;;;0.35;;
34876;SDS011;21086;44.780;17.194;2023-04-25T01:41:29;0.90;;;0.40;;
34876;SDS011;21086;44.780;17.194;2023-04-25T01:43:56;0.50;;;0.35;;
34876;SDS011;21086;44.780;17.194;2023-04-25T01:46:23;0.93;;;0.60;;
34876;SDS011;21086;44.780;17.194;2023-04-25T01:48:50;1.27;;;0.55;;
34876;SDS011;21086;44.780;17.194;2023-04-25T01:51:17;1.95;;;0.70;;
34876;SDS011;21086;44.780;17.194;2023-04-25T01:53:45;0.93;;;0.43;;
34876;SDS011;21086;44.780;17.194;2023-04-25T01:56:12;1.65;;;0.40;;
34876;SDS011;21086;44.780;17.194;2023-04-25T01:58:38;0.30;;;0.22;;
34876;SDS011;21086;44.780;17.194;2023-04-25T02:01:05;0.70;;;0.25;;
34876;SDS011;21086;44.780;17.194;2023-04-25T02:03:33;0.73;;;0.50;;
34876;SDS011;21086;44.780;17.194;2023-04-25T02:06:01;0.90;;;0.40;;
34876;SDS011;21086;44.780;17.194;2023-04-25T02:08:28;1.65;;;0.52;;
34876;SDS011;21086;44.780;17.194;2023-04-25T02:10:56;0.47;;;0.40;;
34876;SDS011;21086;44.780;17.194;2023-04-25T02:13:24;1.52;;;0.70;;
34876;SDS011;21086;44.780;17.194;2023-04-25T02:15:51;1.15;;;0.50;;
34876;SDS011;21086;44.780;17.194;2023-04-25T02:18:18;0.52;;;0.50;;
34876;SDS011;21086;44.780;17.194;2023-04-25T02:20:47;0.40;;;0.35;;
34876;SDS011;21086;44.780;17.194;2023-04-25T02:23:14;0.60;;;0.60;;
34876;SDS011;21086;44.780;17.194;2023-04-25T02:25:41;1.10;;;0.60;;
34876;SDS011;21086;44.780;17.194;2023-04-25T02:28:09;0.82;;;0.57;;
34876;SDS011;21086;44.780;17.194;2023-04-25T02:30:36;0.77;;;0.60;;
34876;SDS011;21086;44.780;17.194;2023-04-25T02:33:03;0.95;;;0.50;;
34876;SDS011;21086;44.780;17.194;2023-04-25T02:35:31;0.95;;;0.70;;
34876;SDS011;21086;44.780;17.194;2023-04-25T02:37:57;2.25;;;0.55;;
34876;SDS011;21086;44.780;17.194;2023-04-25T02:40:24;1.60;;;0.55;;
34876;SDS011;21086;44.780;17.194;2023-04-25T02:42:51;1.20;;;0.70;;
34876;SDS011;21086;44.780;17.194;2023-04-25T02:45:18;0.73;;;0.50;;
34876;SDS011;21086;44.780;17.194;2023-04-25T02:50:31;0.95;;;0.60;;
34876;SDS011;21086;44.780;17.194;2023-04-25T02:56:03;0.80;;;0.50;;
34876;SDS011;21086;44.780;17.194;2023-04-25T02:58:30;0.50;;;0.50;;
34876;SDS011;21086;44.780;17.194;2023-04-25T03:00:57;1.10;;;0.55;;
34876;SDS011;21086;44.780;17.194;2023-04-25T03:03:25;0.70;;;0.57;;
34876;SDS011;21086;44.780;17.194;2023-04-25T03:05:52;0.70;;;0.40;;
34876;SDS011;21086;44.780;17.194;2023-04-25T03:08:19;0.55;;;0.55;;
34876;SDS011;21086;44.780;17.194;2023-04-25T03:10:46;0.88;;;0.60;;
34876;SDS011;21086;44.780;17.194;2023-04-25T03:13:14;0.65;;;0.50;;
34876;SDS011;21086;44.780;17.194;2023-04-25T03:15:41;1.95;;;0.60;;
34876;SDS011;21086;44.780;17.194;2023-04-25T03:18:08;0.57;;;0.50;;
34876;SDS011;21086;44.780;17.194;2023-04-25T03:20:36;2.10;;;0.60;;
34876;SDS011;21086;44.780;17.194;2023-04-25T03:23:03;0.85;;;0.55;;
34876;SDS011;21086;44.780;17.194;2023-04-25T03:25:30;0.70;;;0.50;;
34876;SDS011;21086;44.780;17.194;2023-04-25T03:27:57;1.38;;;0.70;;
34876;SDS011;21086;44.780;17.194;2023-04-25T03:30:24;2.05;;;0.60;;
34876;SDS011;21086;44.780;17.194;2023-04-25T03:32:51;0.40;;;0.38;;
34876;SDS011;21086;44.780;17.194;2023-04-25T03:35:18;0.52;;;0.50;;
34876;SDS011;21086;44.780;17.194;2023-04-25T03:37:45;2.15;;;0.68;;
34876;SDS011;21086;44.780;17.194;2023-04-25T03:40:12;1.00;;;0.63;;
34876;SDS011;21086;44.780;17.194;2023-04-25T03:42:39;0.45;;;0.45;;
34876;SDS011;21086;44.780;17.194;2023-04-25T03:45:09;0.73;;;0.60;;
34876;SDS011;21086;44.780;17.194;2023-04-25T03:47:36;1.25;;;0.60;;
34876;SDS011;21086;44.780;17.194;2023-04-25T03:50:03;1.20;;;1.00;;
34876;SDS011;21086;44.780;17.194;2023-04-25T03:52:32;0.68;;;0.50;;
34876;SDS011;21086;44.780;17.194;2023-04-25T03:54:59;0.70;;;0.40;;
34876;SDS011;21086;44.780;17.194;2023-04-25T04:00:12;1.10;;;0.43;;
34876;SDS011;21086;44.780;17.194;2023-04-25T04:08:37;0.70;;;0.70;;
34876;SDS011;21086;44.780;17.194;2023-04-25T04:14:18;0.75;;;0.50;;
34876;SDS011;21086;44.780;17.194;2023-04-25T04:16:45;1.15;;;0.55;;
34876;SDS011;21086;44.780;17.194;2023-04-25T04:19:12;1.10;;;0.90;;
34876;SDS011;21086;44.780;17.194;2023-04-25T04:21:39;4.15;;;0.90;;
34876;SDS011;21086;44.780;17.194;2023-04-25T04:24:06;1.25;;;0.80;;
34876;SDS011;21086;44.780;17.194;2023-04-25T04:26:33;1.65;;;0.90;;
34876;SDS011;21086;44.780;17.194;2023-04-25T04:29:01;0.73;;;0.70;;
34876;SDS011;21086;44.780;17.194;2023-04-25T04:31:29;1.30;;;0.60;;
34876;SDS011;21086;44.780;17.194;2023-04-25T04:33:56;1.27;;;0.85;;
34876;SDS011;21086;44.780;17.194;2023-04-25T04:36:23;1.73;;;0.80;;
34876;SDS011;21086;44.780;17.194;2023-04-25T04:38:52;1.00;;;0.70;;
34876;SDS011;21086;44.780;17.194;2023-04-25T04:41:19;0.95;;;0.70;;
34876;SDS011;21086;44.780;17.194;2023-04-25T04:43:46;0.85;;;0.70;;
34876;SDS011;21086;44.780;17.194;2023-04-25T04:46:14;1.55;;;0.90;;
34876;SDS011;21086;44.780;17.194;2023-04-25T04:48:41;1.05;;;0.75;;
34876;SDS011;21086;44.780;17.194;2023-04-25T04:51:12;1.42;;;1.02;;
34876;SDS011;21086;44.780;17.194;2023-04-25T04:53:39;0.93;;;0.63;;
34876;SDS011;21086;44.780;17.194;2023-04-25T04:56:06;1.00;;;0.70;;
34876;SDS011;21086;44.780;17.194;2023-04-25T04:58:33;1.67;;;0.80;;
34876;SDS011;21086;44.780;17.194;2023-04-25T05:01:02;0.98;;;0.70;;
34876;SDS011;21086;44.780;17.194;2023-04-25T05:06:36;0.90;;;0.55;;
34876;SDS011;21086;44.780;17.194;2023-04-25T05:09:03;1.90;;;0.90;;
34876;SDS011;21086;44.780;17.194;2023-04-25T05:11:31;2.67;;;0.80;;
34876;SDS011;21086;44.780;17.194;2023-04-25T05:13:58;1.58;;;0.98;;
34876;SDS011;21086;44.780;17.194;2023-04-25T05:16:25;1.42;;;0.77;;
34876;SDS011;21086;44.780;17.194;2023-04-25T05:18:52;1.90;;;1.08;;
34876;SDS011;21086;44.780;17.194;2023-04-25T05:21:19;1.27;;;1.08;;
34876;SDS011;21086;44.780;17.194;2023-04-25T05:23:46;1.15;;;0.90;;
34876;SDS011;21086;44.780;17.194;2023-04-25T05:26:13;1.13;;;0.65;;
34876;SDS011;21086;44.780;17.194;2023-04-25T05:28:40;1.58;;;1.13;;
34876;SDS011;21086;44.780;17.194;2023-04-25T05:31:11;1.55;;;1.13;;
34876;SDS011;21086;44.780;17.194;2023-04-25T05:33:39;0.82;;;0.70;;
34876;SDS011;21086;44.780;17.194;2023-04-25T05:36:06;1.52;;;0.90;;
34876;SDS011;21086;44.780;17.194;2023-04-25T05:38:33;0.88;;;0.60;;
34876;SDS011;21086;44.780;17.194;2023-04-25T05:43:46;1.33;;;0.88;;
34876;SDS011;21086;44.780;17.194;2023-04-25T05:49:04;2.25;;;1.10;;
34876;SDS011;21086;44.780;17.194;2023-04-25T05:51:32;1.35;;;0.95;;
34876;SDS011;21086;44.780;17.194;2023-04-25T05:53:59;2.90;;;1.17;;
34876;SDS011;21086;44.780;17.194;2023-04-25T05:56:26;1.10;;;0.90;;
34876;SDS011;21086;44.780;17.194;2023-04-25T05:58:53;1.58;;;1.10;;
34876;SDS011;21086;44.780;17.194;2023-04-25T06:01:21;2.13;;;1.60;;
34876;SDS011;21086;44.780;17.194;2023-04-25T06:03:49;2.38;;;1.60;;
34876;SDS011;21086;44.780;17.194;2023-04-25T06:06:18;2.28;;;1.52;;
34876;SDS011;21086;44.780;17.194;2023-04-25T06:08:45;1.83;;;1.23;;
34876;SDS011;21086;44.780;17.194;2023-04-25T06:14:03;2.88;;;2.13;;
34876;SDS011;21086;44.780;17.194;2023-04-25T06:16:30;2.03;;;1.80;;
34876;SDS011;21086;44.780;17.194;2023-04-25T06:18:58;2.53;;;1.58;;
34876;SDS011;21086;44.780;17.194;2023-04-25T06:21:24;2.80;;;1.63;;
34876;SDS011;21086;44.780;17.194;2023-04-25T06:23:52;2.30;;;1.30;;
34876;SDS011;21086;44.780;17.194;2023-04-25T06:26:19;1.73;;;1.30;;
34876;SDS011;21086;44.780;17.194;2023-04-25T06:28:46;1.33;;;0.68;;
34876;SDS011;21086;44.780;17.194;2023-04-25T06:31:13;1.48;;;1.08;;
34876;SDS011;21086;44.780;17.194;2023-04-25T06:33:41;0.60;;;0.55;;
34876;SDS011;21086;44.780;17.194;2023-04-25T06:38:41;3.88;;;0.75;;
34876;SDS011;21086;44.780;17.194;2023-04-25T06:41:10;0.82;;;0.63;;
34876;SDS011;21086;44.780;17.194;2023-04-25T06:43:40;1.00;;;0.80;;
34876;SDS011;21086;44.780;17.194;2023-04-25T06:46:08;1.23;;;0.63;;
34876;SDS011;21086;44.780;17.194;2023-04-25T06:48:35;0.98;;;0.70;;
34876;SDS011;21086;44.780;17.194;2023-04-25T06:51:02;1.75;;;1.33;;
34876;SDS011;21086;44.780;17.194;2023-04-25T06:53:30;1.00;;;0.88;;
34876;SDS011;21086;44.780;17.194;2023-04-25T06:55:57;1.63;;;1.02;;
34876;SDS011;21086;44.780;17.194;2023-04-25T06:58:24;1.00;;;0.80;;
34876;SDS011;21086;44.780;17.194;2023-04-25T07:00:52;0.85;;;0.68;;
34876;SDS011;21086;44.780;17.194;2023-04-25T07:03:19;1.25;;;0.82;;
34876;SDS011;21086;44.780;17.194;2023-04-25T07:05:47;0.50;;;0.50;;
34876;SDS011;21086;44.780;17.194;2023-04-25T07:08:14;2.90;;;0.60;;
34876;SDS011;21086;44.780;17.194;2023-04-25T07:10:41;0.95;;;0.80;;
34876;SDS011;21086;44.780;17.194;2023-04-25T07:13:08;2.55;;;0.60;;
34876;SDS011;21086;44.780;17.194;2023-04-25T07:15:35;0.77;;;0.57;;
34876;SDS011;21086;44.780;17.194;2023-04-25T07:18:03;0.65;;;0.47;;
34876;SDS011;21086;44.780;17.194;2023-04-25T07:20:30;1.23;;;0.60;;
34876;SDS011;21086;44.780;17.194;2023-04-25T07:22:57;1.38;;;0.60;;
34876;SDS011;21086;44.780;17.194;2023-04-25T07:25:24;2.15;;;0.50;;
34876;SDS011;21086;44.780;17.194;2023-04-25T07:27:51;0.85;;;0.55;;
34876;SDS011;21086;44.780;17.194;2023-04-25T07:30:18;0.70;;;0.50;;
34876;SDS011;21086;44.780;17.194;2023-04-25T07:32:46;0.70;;;0.60;;
34876;SDS011;21086;44.780;17.194;2023-04-25T07:35:13;1.65;;;0.82;;
34876;SDS011;21086;44.780;17.194;2023-04-25T07:37:40;1.02;;;0.60;;
34876;SDS011;21086;44.780;17.194;2023-04-25T07:40:07;0.63;;;0.47;;
34876;SDS011;21086;44.780;17.194;2023-04-25T07:47:56;1.05;;;0.70;;
34876;SDS011;21086;44.780;17.194;2023-04-25T07:50:24;0.70;;;0.70;;
34876;SDS011;21086;44.780;17.194;2023-04-25T07:55:27;0.40;;;0.30;;
34876;SDS011;21086;44.780;17.194;2023-04-25T07:57:55;0.85;;;0.40;;
34876;SDS011;21086;44.780;17.194;2023-04-25T08:00:22;0.73;;;0.50;;
34876;SDS011;21086;44.780;17.194;2023-04-25T08:02:50;1.42;;;0.63;;
34876;SDS011;21086;44.780;17.194;2023-04-25T08:05:18;2.65;;;0.88;;
34876;SDS011;21086;44.780;17.194;2023-04-25T08:07:48;1.25;;;0.70;;
34876;SDS011;21086;44.780;17.194;2023-04-25T08:10:16;1.10;;;0.82;;
34876;SDS011;21086;44.780;17.194;2023-04-25T08:12:43;1.02;;;0.73;;
34876;SDS011;21086;44.780;17.194;2023-04-25T08:15:10;1.23;;;0.80;;
34876;SDS011;21086;44.780;17.194;2023-04-25T08:17:39;2.35;;;0.70;;
34876;SDS011;21086;44.780;17.194;2023-04-25T08:20:07;3.28;;;0.50;;
34876;SDS011;21086;44.780;17.194;2023-04-25T08:22:35;0.73;;;0.60;;
34876;SDS011;21086;44.780;17.194;2023-04-25T08:25:02;2.20;;;0.80;;
34876;SDS011;21086;44.780;17.194;2023-04-25T08:27:29;1.52;;;0.85;;
34876;SDS011;21086;44.780;17.194;2023-04-25T08:29:56;1.00;;;0.60;;
34876;SDS011;21086;44.780;17.194;2023-04-25T08:32:25;0.70;;;0.40;;
34876;SDS011;21086;44.780;17.194;2023-04-25T08:34:55;2.47;;;0.40;;
34876;SDS011;21086;44.780;17.194;2023-04-25T08:37:23;0.93;;;0.40;;
34876;SDS011;21086;44.780;17.194;2023-04-25T08:39:50;1.80;;;0.40;;
34876;SDS011;21086;44.780;17.194;2023-04-25T08:42:19;2.25;;;0.70;;
34876;SDS011;21086;44.780;17.194;2023-04-25T08:47:46;0.50;;;0.47;;
34876;SDS011;21086;44.780;17.194;2023-04-25T08:50:15;1.35;;;0.90;;
34876;SDS011;21086;44.780;17.194;2023-04-25T08:52:43;1.33;;;0.85;;
34876;SDS011;21086;44.780;17.194;2023-04-25T08:55:14;3.63;;;0.50;;
34876;SDS011;21086;44.780;17.194;2023-04-25T08:57:42;0.85;;;0.50;;
34876;SDS011;21086;44.780;17.194;2023-04-25T09:00:10;2.00;;;0.60;;
34876;SDS011;21086;44.780;17.194;2023-04-25T09:02:39;0.40;;;0.40;;
34876;SDS011;21086;44.780;17.194;2023-04-25T09:05:06;1.23;;;0.60;;
34876;SDS011;21086;44.780;17.194;2023-04-25T09:07:36;1.30;;;0.40;;
34876;SDS011;21086;44.780;17.194;2023-04-25T09:10:03;1.00;;;0.60;;
34876;SDS011;21086;44.780;17.194;2023-04-25T09:12:31;0.25;;;0.22;;
34876;SDS011;21086;44.780;17.194;2023-04-25T09:17:36;0.80;;;0.50;;
34876;SDS011;21086;44.780;17.194;2023-04-25T09:20:07;0.73;;;0.50;;
34876;SDS011;21086;44.780;17.194;2023-04-25T09:22:36;0.82;;;0.47;;
34876;SDS011;21086;44.780;17.194;2023-04-25T09:25:13;0.32;;;0.32;;
34876;SDS011;21086;44.780;17.194;2023-04-25T09:27:49;0.60;;;0.40;;
34876;SDS011;21086;44.780;17.194;2023-04-25T09:30:18;0.60;;;0.40;;
34876;SDS011;21086;44.780;17.194;2023-04-25T09:32:56;0.35;;;0.30;;
34876;SDS011;21086;44.780;17.194;2023-04-25T09:35:24;1.58;;;0.30;;
34876;SDS011;21086;44.780;17.194;2023-04-25T09:37:52;0.75;;;0.30;;
34876;SDS011;21086;44.780;17.194;2023-04-25T09:40:20;0.60;;;0.40;;
34876;SDS011;21086;44.780;17.194;2023-04-25T09:42:47;0.52;;;0.40;;
34876;SDS011;21086;44.780;17.194;2023-04-25T09:45:14;1.48;;;0.82;;
34876;SDS011;21086;44.780;17.194;2023-04-25T09:47:41;0.50;;;0.50;;
34876;SDS011;21086;44.780;17.194;2023-04-25T09:50:13;1.70;;;0.73;;
34876;SDS011;21086;44.780;17.194;2023-04-25T09:52:41;2.92;;;0.50;;
34876;SDS011;21086;44.780;17.194;2023-04-25T09:55:09;2.20;;;0.50;;
34876;SDS011;21086;44.780;17.194;2023-04-25T09:57:36;1.40;;;0.60;;
34876;SDS011;21086;44.780;17.194;2023-04-25T10:00:06;1.13;;;0.32;;
34876;SDS011;21086;44.780;17.194;2023-04-25T10:02:38;0.70;;;0.45;;
34876;SDS011;21086;44.780;17.194;2023-04-25T10:05:09;1.15;;;0.60;;
34876;SDS011;21086;44.780;17.194;2023-04-25T10:07:37;1.63;;;0.70;;
34876;SDS011;21086;44.780;17.194;2023-04-25T10:10:05;0.50;;;0.40;;
34876;SDS011;21086;44.780;17.194;2023-04-25T10:12:32;1.00;;;0.75;;
34876;SDS011;21086;44.780;17.194;2023-04-25T10:15:00;0.88;;;0.55;;
34876;SDS011;21086;44.780;17.194;2023-04-25T10:17:29;1.80;;;1.17;;
34876;SDS011;21086;44.780;17.194;2023-04-25T10:19:58;1.45;;;0.90;;
34876;SDS011;21086;44.780;17.194;2023-04-25T10:22:42;1.27;;;1.00;;
34876;SDS011;21086;44.780;17.194;2023-04-25T10:25:15;1.25;;;0.70;;
34876;SDS011;21086;44.780;17.194;2023-04-25T10:27:42;2.33;;;0.70;;
34876;SDS011;21086;44.780;17.194;2023-04-25T10:30:10;2.88;;;0.40;;
34876;SDS011;21086;44.780;17.194;2023-04-25T10:32:42;1.13;;;0.63;;
34876;SDS011;21086;44.780;17.194;2023-04-25T10:35:14;0.82;;;0.40;;
34876;SDS011;21086;44.780;17.194;2023-04-25T10:37:56;1.13;;;0.93;;
34876;SDS011;21086;44.780;17.194;2023-04-25T10:46:01;1.15;;;0.47;;
34876;SDS011;21086;44.780;17.194;2023-04-25T10:48:30;1.23;;;0.75;;
34876;SDS011;21086;44.780;17.194;2023-04-25T10:51:10;0.52;;;0.40;;
34876;SDS011;21086;44.780;17.194;2023-04-25T10:56:22;1.75;;;0.57;;
34876;SDS011;21086;44.780;17.194;2023-04-25T10:58:57;0.73;;;0.45;;
34876;SDS011;21086;44.780;17.194;2023-04-25T11:01:38;0.70;;;0.57;;
34876;SDS011;21086;44.780;17.194;2023-04-25T11:04:05;1.08;;;0.70;;
34876;SDS011;21086;44.780;17.194;2023-04-25T11:09:38;0.60;;;0.50;;
34876;SDS011;21086;44.780;17.194;2023-04-25T11:12:09;2.90;;;1.30;;
34876;SDS011;21086;44.780;17.194;2023-04-25T11:14:39;1.58;;;0.60;;
34876;SDS011;21086;44.780;17.194;2023-04-25T11:17:05;1.48;;;0.82;;
34876;SDS011;21086;44.780;17.194;2023-04-25T11:19:33;0.85;;;0.60;;
34876;SDS011;21086;44.780;17.194;2023-04-25T11:22:01;2.88;;;1.23;;
34876;SDS011;21086;44.780;17.194;2023-04-25T11:24:30;0.68;;;0.43;;
34876;SDS011;21086;44.780;17.194;2023-04-25T11:27:01;0.80;;;0.55;;
34876;SDS011;21086;44.780;17.194;2023-04-25T11:29:29;1.50;;;1.08;;
34876;SDS011;21086;44.780;17.194;2023-04-25T11:31:57;0.75;;;0.60;;
34876;SDS011;21086;44.780;17.194;2023-04-25T11:34:25;1.38;;;0.85;;
34876;SDS011;21086;44.780;17.194;2023-04-25T11:37:02;0.93;;;0.60;;
34876;SDS011;21086;44.780;17.194;2023-04-25T11:39:30;3.72;;;0.60;;
34876;SDS011;21086;44.780;17.194;2023-04-25T11:41:57;0.85;;;0.57;;
34876;SDS011;21086;44.780;17.194;2023-04-25T11:44:26;0.32;;;0.30;;
34876;SDS011;21086;44.780;17.194;2023-04-25T11:46:54;0.57;;;0.40;;
34876;SDS011;21086;44.780;17.194;2023-04-25T11:49:21;1.70;;;0.70;;
34876;SDS011;21086;44.780;17.194;2023-04-25T11:51:51;1.58;;;0.40;;
34876;SDS011;21086;44.780;17.194;2023-04-25T11:54:18;1.05;;;0.43;;
34876;SDS011;21086;44.780;17.194;2023-04-25T11:56:46;0.50;;;0.40;;
34876;SDS011;21086;44.780;17.194;2023-04-25T11:59:13;1.45;;;0.65;;
34876;SDS011;21086;44.780;17.194;2023-04-25T12:01:41;1.33;;;0.70;;
34876;SDS011;21086;44.780;17.194;2023-04-25T12:04:16;1.88;;;1.23;;
34876;SDS011;21086;44.780;17.194;2023-04-25T12:06:46;1.05;;;0.70;;
34876;SDS011;21086;44.780;17.194;2023-04-25T12:09:16;1.02;;;0.60;;
34876;SDS011;21086;44.780;17.194;2023-04-25T12:11:57;0.85;;;0.55;;
34876;SDS011;21086;44.780;17.194;2023-04-25T12:14:30;0.20;;;0.20;;
34876;SDS011;21086;44.780;17.194;2023-04-25T12:16:59;0.52;;;0.35;;
34876;SDS011;21086;44.780;17.194;2023-04-25T12:19:33;0.75;;;0.20;;
34876;SDS011;21086;44.780;17.194;2023-04-25T12:22:02;1.25;;;0.40;;
34876;SDS011;21086;44.780;17.194;2023-04-25T12:24:32;0.68;;;0.40;;
34876;SDS011;21086;44.780;17.194;2023-04-25T12:27:05;0.77;;;0.30;;
34876;SDS011;21086;44.780;17.194;2023-04-25T12:29:34;2.63;;;1.00;;
34876;SDS011;21086;44.780;17.194;2023-04-25T12:32:05;1.83;;;0.73;;
34876;SDS011;21086;44.780;17.194;2023-04-25T12:34:32;1.63;;;0.30;;
34876;SDS011;21086;44.780;17.194;2023-04-25T12:37:01;0.32;;;0.20;;
34876;SDS011;21086;44.780;17.194;2023-04-25T12:39:28;1.08;;;0.40;;
34876;SDS011;21086;44.780;17.194;2023-04-25T12:41:55;2.05;;;0.10;;
34876;SDS011;21086;44.780;17.194;2023-04-25T12:44:22;1.17;;;0.40;;
34876;SDS011;21086;44.780;17.194;2023-04-25T12:46:49;1.50;;;0.52;;
34876;SDS011;21086;44.780;17.194;2023-04-25T12:49:17;0.10;;;0.10;;
34876;SDS011;21086;44.780;17.194;2023-04-25T12:51:44;0.00;;;0.00;;
34876;SDS011;21086;44.780;17.194;2023-04-25T12:54:12;1.45;;;0.32;;
34876;SDS011;21086;44.780;17.194;2023-04-25T12:56:41;0.40;;;0.10;;
34876;SDS011;21086;44.780;17.194;2023-04-25T12:59:08;0.63;;;0.10;;
34876;SDS011;21086;44.780;17.194;2023-04-25T13:01:35;0.88;;;0.30;;
34876;SDS011;21086;44.780;17.194;2023-04-25T13:04:03;0.10;;;0.10;;
34876;SDS011;21086;44.780;17.194;2023-04-25T13:06:30;0.45;;;0.28;;
34876;SDS011;21086;44.780;17.194;2023-04-25T13:08:58;1.40;;;0.30;;
34876;SDS011;21086;44.780;17.194;2023-04-25T13:11:25;1.45;;;0.30;;
34876;SDS011;21086;44.780;17.194;2023-04-25T13:13:51;0.60;;;0.20;;
34876;SDS011;21086;44.780;17.194;2023-04-25T13:16:19;2.20;;;0.45;;
34876;SDS011;21086;44.780;17.194;2023-04-25T13:18:48;2.05;;;0.30;;
34876;SDS011;21086;44.780;17.194;2023-04-25T13:21:15;0.40;;;0.20;;
34876;SDS011;21086;44.780;17.194;2023-04-25T13:23:42;1.00;;;0.40;;
34876;SDS011;21086;44.780;17.194;2023-04-25T13:26:10;0.80;;;0.20;;
34876;SDS011;21086;44.780;17.194;2023-04-25T13:28:37;1.58;;;0.30;;
34876;SDS011;21086;44.780;17.194;2023-04-25T13:31:04;1.67;;;0.43;;
34876;SDS011;21086;44.780;17.194;2023-04-25T13:33:32;1.55;;;0.40;;
34876;SDS011;21086;44.780;17.194;2023-04-25T13:36:00;1.90;;;0.43;;
34876;SDS011;21086;44.780;17.194;2023-04-25T13:38:27;0.32;;;0.32;;
34876;SDS011;21086;44.780;17.194;2023-04-25T13:40:55;1.45;;;0.30;;
34876;SDS011;21086;44.780;17.194;2023-04-25T13:43:22;1.90;;;0.50;;
34876;SDS011;21086;44.780;17.194;2023-04-25T13:45:49;0.60;;;0.50;;
34876;SDS011;21086;44.780;17.194;2023-04-25T13:48:18;1.85;;;0.40;;
34876;SDS011;21086;44.780;17.194;2023-04-25T13:50:46;1.67;;;0.52;;
34876;SDS011;21086;44.780;17.194;2023-04-25T13:53:13;0.63;;;0.20;;
34876;SDS011;21086;44.780;17.194;2023-04-25T13:55:40;2.40;;;0.20;;
34876;SDS011;21086;44.780;17.194;2023-04-25T13:58:07;0.50;;;0.25;;
34876;SDS011;21086;44.780;17.194;2023-04-25T14:00:36;2.58;;;0.30;;
34876;SDS011;21086;44.780;17.194;2023-04-25T14:03:05;0.25;;;0.20;;
34876;SDS011;21086;44.780;17.194;2023-04-25T14:05:36;0.30;;;0.17;;
34876;SDS011;21086;44.780;17.194;2023-04-25T14:08:08;1.35;;;0.10;;
34876;SDS011;21086;44.780;17.194;2023-04-25T14:10:35;1.38;;;0.30;;
34876;SDS011;21086;44.780;17.194;2023-04-25T14:13:03;0.40;;;0.40;;
34876;SDS011;21086;44.780;17.194;2023-04-25T14:15:33;1.20;;;0.15;;
34876;SDS011;21086;44.780;17.194;2023-04-25T14:18:01;0.20;;;0.13;;
34876;SDS011;21086;44.780;17.194;2023-04-25T14:20:34;0.28;;;0.20;;
34876;SDS011;21086;44.780;17.194;2023-04-25T14:23:01;0.55;;;0.20;;
34876;SDS011;21086;44.780;17.194;2023-04-25T14:25:29;0.10;;;0.10;;
34876;SDS011;21086;44.780;17.194;2023-04-25T14:27:56;0.65;;;0.20;;
34876;SDS011;21086;44.780;17.194;2023-04-25T14:30:23;0.77;;;0.30;;
34876;SDS011;21086;44.780;17.194;2023-04-25T14:32:50;1.48;;;0.40;;
34876;SDS011;21086;44.780;17.194;2023-04-25T14:35:17;1.75;;;0.30;;
34876;SDS011;21086;44.780;17.194;2023-04-25T14:37:45;0.82;;;0.50;;
34876;SDS011;21086;44.780;17.194;2023-04-25T14:40:12;0.80;;;0.30;;
34876;SDS011;21086;44.780;17.194;2023-04-25T14:42:41;0.68;;;0.40;;
34876;SDS011;21086;44.780;17.194;2023-04-25T14:45:09;1.35;;;0.40;;
34876;SDS011;21086;44.780;17.194;2023-04-25T14:47:36;0.63;;;0.40;;
34876;SDS011;21086;44.780;17.194;2023-04-25T14:50:04;5.78;;;0.60;;
34876;SDS011;21086;44.780;17.194;2023-04-25T14:52:32;1.63;;;0.50;;
34876;SDS011;21086;44.780;17.194;2023-04-25T14:54:59;1.52;;;0.50;;
34876;SDS011;21086;44.780;17.194;2023-04-25T14:57:33;0.88;;;0.40;;
34876;SDS011;21086;44.780;17.194;2023-04-25T15:00:02;0.47;;;0.20;;
34876;SDS011;21086;44.780;17.194;2023-04-25T15:02:33;0.88;;;0.40;;
34876;SDS011;21086;44.780;17.194;2023-04-25T15:05:01;1.08;;;0.38;;
34876;SDS011;21086;44.780;17.194;2023-04-25T15:07:29;0.50;;;0.40;;
34876;SDS011;21086;44.780;17.194;2023-04-25T15:09:56;2.20;;;0.43;;
34876;SDS011;21086;44.780;17.194;2023-04-25T15:12:23;1.13;;;0.28;;
34876;SDS011;21086;44.780;17.194;2023-04-25T15:14:52;0.57;;;0.43;;
34876;SDS011;21086;44.780;17.194;2023-04-25T15:17:19;2.25;;;0.50;;
34876;SDS011;21086;44.780;17.194;2023-04-25T15:19:46;1.77;;;0.30;;
34876;SDS011;21086;44.780;17.194;2023-04-25T15:22:13;0.65;;;0.40;;
34876;SDS011;21086;44.780;17.194;2023-04-25T15:24:40;0.70;;;0.50;;
34876;SDS011;21086;44.780;17.194;2023-04-25T15:27:07;1.75;;;0.90;;
34876;SDS011;21086;44.780;17.194;2023-04-25T15:29:34;1.25;;;1.00;;
34876;SDS011;21086;44.780;17.194;2023-04-25T15:32:02;1.17;;;0.70;;
34876;SDS011;21086;44.780;17.194;2023-04-25T15:34:30;1.58;;;0.98;;